Time;durP1;ratioP1;P1;durP2;ratioP2;P2;SDS_P1;SDS_P2;PMS_P1;PMS_P2;Temp;Humidity;BMP_temperature;BMP_pressure;BME280_temperature;BME280_humidity;BME280_pressure;Samples;Min_cycle;Max_cycle;Signal;HPM_P1;HPM_P2
2023/09/25 00:00:49;;;;;;;5.80;5.40;;;;;;;;;;2611377;54;21103;-79
2023/09/25 00:06:18;;;;;;;6.30;5.90;;;;;;;;;;2611726;54;20410;-80
2023/09/25 00:11:48;;;;;;;6.70;6.10;;;;;;;;;;2611235;54;20394;-79
2023/09/25 00:20:56;;;;;;;6.70;6.30;;;;;;;;;;2611185;54;21079;-78
2023/09/25 00:26:25;;;;;;;6.47;5.97;;;;;;;;;;2610564;54;20406;-75
2023/09/25 00:31:55;;;;;;;7.50;7.00;;;;;;;;;;2611182;54;20394;-74
2023/09/25 00:37:26;;;;;;;7.60;7.20;;;;;;;;;;2610681;54;20948;-77
2023/09/25 00:42:56;;;;;;;7.40;7.00;;;;;;;;;;2610796;31;20855;-77
2023/09/25 00:48:27;;;;;;;8.10;7.70;;;;;;;;;;2610823;54;20422;-77
2023/09/25 00:53:57;;;;;;;8.00;7.60;;;;;;;;;;2610772;54;20375;-77
2023/09/25 00:59:27;;;;;;;8.17;7.60;;;;;;;;;;2610266;39;20477;-77
2023/09/25 01:04:56;;;;;;;8.10;7.60;;;;;;;;;;2611295;54;20387;-80
2023/09/25 01:10:27;;;;;;;8.00;7.50;;;;;;;;;;2611302;54;20414;-79
2023/09/25 01:15:57;;;;;;;7.60;7.20;;;;;;;;;;2611421;54;20989;-80
2023/09/25 01:21:27;;;;;;;7.50;7.10;;;;;;;;;;2611079;54;20446;-80
2023/09/25 01:26:56;;;;;;;7.57;7.17;;;;;;;;;;2610515;54;20346;-80
2023/09/25 01:32:26;;;;;;;7.80;7.40;;;;;;;;;;2611305;54;20390;-80
2023/09/25 01:37:57;;;;;;;7.70;7.27;;;;;;;;;;2611613;54;20548;-80
2023/09/25 01:43:27;;;;;;;7.23;6.83;;;;;;;;;;2610781;54;20403;-79
2023/09/25 01:48:56;;;;;;;7.00;6.60;;;;;;;;;;2611474;54;20390;-79
2023/09/25 01:54:26;;;;;;;7.23;6.63;;;;;;;;;;2612946;54;20398;-81
2023/09/25 01:59:56;;;;;;;8.73;7.00;;;;;;;;;;2612372;54;20390;-78
2023/09/25 02:05:25;;;;;;;6.80;6.40;;;;;;;;;;2612350;54;20414;-79
2023/09/25 02:10:55;;;;;;;6.40;6.10;;;;;;;;;;2613188;39;20713;-78
2023/09/25 02:16:25;;;;;;;7.13;6.70;;;;;;;;;;2613923;54;20422;-80
2023/09/25 02:28:03;;;;;;;6.53;6.10;;;;;;;;;;2614766;54;20423;-79
2023/09/25 02:33:32;;;;;;;6.60;6.10;;;;;;;;;;2612223;54;20419;-78
2023/09/25 02:39:05;;;;;;;6.83;6.33;;;;;;;;;;2611641;54;20499;-79
2023/09/25 02:44:35;;;;;;;5.70;5.40;;;;;;;;;;2610468;54;20371;-79
2023/09/25 02:50:05;;;;;;;5.20;4.83;;;;;;;;;;2611820;54;20435;-80
2023/09/25 02:55:35;;;;;;;6.57;5.97;;;;;;;;;;2611680;54;20399;-78
2023/09/25 03:01:04;;;;;;;7.37;6.80;;;;;;;;;;2611956;54;20407;-78
2023/09/25 03:06:34;;;;;;;6.87;6.13;;;;;;;;;;2612687;39;20823;-78
2023/09/25 03:12:05;;;;;;;6.53;5.53;;;;;;;;;;2612465;54;20383;-79
2023/09/25 03:17:35;;;;;;;6.07;5.57;;;;;;;;;;2612371;54;20419;-78
2023/09/25 03:26:40;;;;;;;7.07;5.40;;;;;;;;;;2610988;54;20840;-79
2023/09/25 03:32:10;;;;;;;5.80;5.20;;;;;;;;;;2612199;39;21676;-80
2023/09/25 03:37:40;;;;;;;6.83;6.33;;;;;;;;;;2612100;54;20879;-79
2023/09/25 03:43:10;;;;;;;6.20;5.70;;;;;;;;;;2611842;54;20417;-79
2023/09/25 03:48:39;;;;;;;6.00;5.40;;;;;;;;;;2611481;54;20391;-76
2023/09/25 03:54:09;;;;;;;6.37;5.87;;;;;;;;;;2611291;54;20403;-76
2023/09/25 03:59:39;;;;;;;6.37;5.77;;;;;;;;;;2611115;54;20395;-76
2023/09/25 04:05:10;;;;;;;6.27;5.60;;;;;;;;;;2612645;39;20821;-75
2023/09/25 04:10:39;;;;;;;6.80;6.30;;;;;;;;;;2611448;54;20427;-75
2023/09/25 04:16:12;;;;;;;6.60;6.10;;;;;;;;;;2612045;39;20777;-77
2023/09/25 04:21:41;;;;;;;7.07;6.47;;;;;;;;;;2611103;54;20395;-76
2023/09/25 04:27:11;;;;;;;6.50;5.90;;;;;;;;;;2610952;54;20418;-75
2023/09/25 04:32:46;;;;;;;7.63;6.93;;;;;;;;;;2610942;54;20402;-76
2023/09/25 04:38:15;;;;;;;8.37;6.37;;;;;;;;;;2610183;54;20375;-78
2023/09/25 04:43:45;;;;;;;6.40;5.80;;;;;;;;;;2610645;54;20961;-78
2023/09/25 04:49:17;;;;;;;5.47;5.07;;;;;;;;;;2610240;54;20499;-78
2023/09/25 04:54:47;;;;;;;6.03;5.53;;;;;;;;;;2610696;54;20371;-79
2023/09/25 05:00:17;;;;;;;6.37;5.87;;;;;;;;;;2610333;39;20768;-79
2023/09/25 05:05:48;;;;;;;7.00;6.30;;;;;;;;;;2611516;54;20375;-78
2023/09/25 05:11:17;;;;;;;7.83;7.13;;;;;;;;;;2612700;31;20893;-77
2023/09/25 05:16:47;;;;;;;8.53;7.80;;;;;;;;;;2611693;54;20416;-78
2023/09/25 05:22:16;;;;;;;6.97;6.47;;;;;;;;;;2611545;54;20390;-78
2023/09/25 05:27:47;;;;;;;10.00;6.70;;;;;;;;;;2612268;54;20402;-78
2023/09/25 05:33:17;;;;;;;7.43;6.80;;;;;;;;;;2614621;54;20402;-78
2023/09/25 05:38:46;;;;;;;7.70;7.20;;;;;;;;;;2614946;54;20390;-78
2023/09/25 05:44:16;;;;;;;7.53;7.03;;;;;;;;;;2614565;54;20431;-78
2023/09/25 05:49:46;;;;;;;8.90;8.30;;;;;;;;;;2612744;39;20806;-78
2023/09/25 05:55:15;;;;;;;7.93;7.53;;;;;;;;;;2613909;54;20407;-78
2023/09/25 06:00:46;;;;;;;9.20;8.00;;;;;;;;;;2614250;54;20395;-78
2023/09/25 06:06:16;;;;;;;7.50;7.00;;;;;;;;;;2614030;54;20492;-78
2023/09/25 06:11:46;;;;;;;8.00;7.50;;;;;;;;;;2609276;54;20390;-78
2023/09/25 06:17:16;;;;;;;7.87;7.27;;;;;;;;;;2614265;54;20391;-78
2023/09/25 06:28:53;;;;;;;9.00;8.47;;;;;;;;;;2612995;54;20924;-78
2023/09/25 06:34:23;;;;;;;8.83;8.17;;;;;;;;;;2614203;54;20391;-77
2023/09/25 06:39:52;;;;;;;9.73;9.23;;;;;;;;;;2613236;54;20387;-78
2023/09/25 06:45:24;;;;;;;9.20;8.70;;;;;;;;;;2614329;54;20413;-79
2023/09/25 06:50:54;;;;;;;8.97;8.43;;;;;;;;;;2615143;54;20382;-78
2023/09/25 06:56:23;;;;;;;9.73;9.23;;;;;;;;;;2613905;54;20391;-79
2023/09/25 07:01:53;;;;;;;9.47;8.97;;;;;;;;;;2613308;54;20431;-78
2023/09/25 07:07:23;;;;;;;11.17;10.40;;;;;;;;;;2613697;54;20414;-78
2023/09/25 07:12:52;;;;;;;10.13;9.33;;;;;;;;;;2611293;54;20395;-78
2023/09/25 07:18:22;;;;;;;10.47;9.43;;;;;;;;;;2614913;54;20394;-79
2023/09/25 07:27:28;;;;;;;10.27;9.67;;;;;;;;;;2615001;54;20450;-79
2023/09/25 07:32:57;;;;;;;10.37;9.87;;;;;;;;;;2614790;54;20438;-78
2023/09/25 07:38:27;;;;;;;10.80;10.00;;;;;;;;;;2614116;54;20378;-79
2023/09/25 07:43:56;;;;;;;10.90;10.40;;;;;;;;;;2613017;54;20387;-78
2023/09/25 07:49:29;;;;;;;11.27;10.57;;;;;;;;;;2615346;54;20546;-79
2023/09/25 07:54:59;;;;;;;11.17;10.57;;;;;;;;;;2613959;39;20771;-80
2023/09/25 08:00:36;;;;;;;11.27;10.63;;;;;;;;;;2611905;54;20412;-78
2023/09/25 08:06:06;;;;;;;12.20;11.60;;;;;;;;;;2610398;54;20407;-78
2023/09/25 08:11:35;;;;;;;12.60;11.80;;;;;;;;;;2612621;54;20371;-78
2023/09/25 08:17:05;;;;;;;11.90;11.30;;;;;;;;;;2610352;54;20394;-79
2023/09/25 08:22:36;;;;;;;11.27;10.70;;;;;;;;;;2611035;54;20424;-78
2023/09/25 08:28:05;;;;;;;12.07;11.47;;;;;;;;;;2611210;54;20367;-79
2023/09/25 08:33:35;;;;;;;11.50;11.00;;;;;;;;;;2613551;54;20386;-78
2023/09/25 08:39:05;;;;;;;11.97;11.37;;;;;;;;;;2651866;36;20983;-79
2023/09/25 08:44:36;;;;;;;11.27;10.77;;;;;;;;;;2611095;54;20415;-78
2023/09/25 08:50:08;;;;;;;11.87;11.27;;;;;;;;;;2611479;54;20388;-78
2023/09/25 08:55:38;;;;;;;12.70;11.90;;;;;;;;;;2612174;54;20383;-78
2023/09/25 09:01:08;;;;;;;12.03;11.53;;;;;;;;;;2612084;39;20757;-79
2023/09/25 09:06:37;;;;;;;11.43;10.90;;;;;;;;;;2612794;54;20395;-79
2023/09/25 09:12:07;;;;;;;11.83;11.27;;;;;;;;;;2613551;54;20391;-79
2023/09/25 09:17:37;;;;;;;11.70;11.10;;;;;;;;;;2613987;31;20852;-77
2023/09/25 09:29:14;;;;;;;11.97;11.30;;;;;;;;;;2620346;54;20415;-77
2023/09/25 09:34:43;;;;;;;12.73;12.13;;;;;;;;;;2619645;54;20391;-76
2023/09/25 09:40:13;;;;;;;12.37;11.87;;;;;;;;;;2614453;54;20400;-77
2023/09/25 09:45:44;;;;;;;11.60;11.10;;;;;;;;;;2614143;54;20383;-76
2023/09/25 09:51:17;;;;;;;12.67;12.17;;;;;;;;;;2618204;54;20410;-77
2023/09/25 09:56:47;;;;;;;12.50;12.00;;;;;;;;;;2614612;54;20358;-76
2023/09/25 10:02:17;;;;;;;11.87;11.37;;;;;;;;;;2614625;39;20780;-78
2023/09/25 10:08:05;;;;;;;11.90;11.40;;;;;;;;;;2612256;54;20399;-77
2023/09/25 10:13:35;;;;;;;12.43;11.77;;;;;;;;;;2613692;54;20394;-79
2023/09/25 10:28:23;;;;;;;12.77;12.17;;;;;;;;;;2614527;39;20759;-76
2023/09/25 10:33:59;;;;;;;12.50;11.83;;;;;;;;;;2614517;39;20705;-78
2023/09/25 10:39:29;;;;;;;12.90;12.30;;;;;;;;;;2615056;54;20416;-77
2023/09/25 10:44:58;;;;;;;13.60;13.00;;;;;;;;;;2615182;54;20395;-76
2023/09/25 10:50:28;;;;;;;12.43;11.83;;;;;;;;;;2614330;54;20427;-77
2023/09/25 10:55:58;;;;;;;11.90;11.33;;;;;;;;;;2614564;54;20391;-76
2023/09/25 11:01:29;;;;;;;11.90;11.30;;;;;;;;;;2613512;54;20399;-76
2023/09/25 11:07:00;;;;;;;11.90;11.40;;;;;;;;;;2615679;54;20355;-77
2023/09/25 11:12:30;;;;;;;12.37;11.77;;;;;;;;;;2614730;54;20378;-76
2023/09/25 11:18:00;;;;;;;12.70;12.20;;;;;;;;;;2613592;39;20889;-78
2023/09/25 11:23:32;;;;;;;12.70;12.10;;;;;;;;;;2616152;31;21038;-77
2023/09/25 11:29:02;;;;;;;12.40;11.90;;;;;;;;;;2615161;54;20383;-76
2023/09/25 11:34:31;;;;;;;12.73;12.13;;;;;;;;;;2613983;54;20386;-76
2023/09/25 11:40:01;;;;;;;12.33;11.80;;;;;;;;;;2612974;54;20506;-77
2023/09/25 11:45:31;;;;;;;11.40;10.90;;;;;;;;;;2613779;54;20941;-77
2023/09/25 11:51:00;;;;;;;11.60;11.10;;;;;;;;;;2613802;54;20435;-78
2023/09/25 11:56:30;;;;;;;12.20;11.60;;;;;;;;;;2614243;54;20680;-78
2023/09/25 12:02:00;;;;;;;12.37;11.77;;;;;;;;;;2612047;54;20407;-76
2023/09/25 12:07:31;;;;;;;11.73;11.13;;;;;;;;;;2613686;54;20379;-76
2023/09/25 12:13:00;;;;;;;12.17;11.67;;;;;;;;;;2615251;54;20496;-76
2023/09/25 12:18:30;;;;;;;11.77;11.27;;;;;;;;;;2614135;54;20455;-75
2023/09/25 12:30:10;;;;;;;11.70;11.10;;;;;;;;;;2614305;54;20527;-78
2023/09/25 12:35:41;;;;;;;12.73;12.23;;;;;;;;;;2614877;54;20375;-78
2023/09/25 12:41:10;;;;;;;12.57;11.97;;;;;;;;;;2614574;46;20410;-78
2023/09/25 12:46:40;;;;;;;11.90;11.40;;;;;;;;;;2614747;54;21225;-80
2023/09/25 12:52:10;;;;;;;14.17;13.47;;;;;;;;;;2619574;54;20410;-80
2023/09/25 12:57:40;;;;;;;12.23;11.47;;;;;;;;;;2613857;54;21024;-79
2023/09/25 13:03:10;;;;;;;11.40;10.70;;;;;;;;;;2613369;54;20363;-80
2023/09/25 13:08:39;;;;;;;11.73;11.13;;;;;;;;;;2614433;39;20940;-80
2023/09/25 13:14:09;;;;;;;12.73;12.03;;;;;;;;;;2612776;54;20383;-80
2023/09/25 13:19:41;;;;;;;11.57;11.07;;;;;;;;;;2612325;39;20934;-81
2023/09/25 13:34:42;;;;;;;12.17;11.67;;;;;;;;;;2611812;54;20407;-79
2023/09/25 13:40:13;;;;;;;12.53;12.03;;;;;;;;;;2611726;54;20416;-81
2023/09/25 13:45:43;;;;;;;11.43;11.03;;;;;;;;;;2611548;54;20386;-79
2023/09/25 13:51:12;;;;;;;11.87;11.37;;;;;;;;;;2613401;39;20837;-79
2023/09/25 13:56:43;;;;;;;11.80;11.30;;;;;;;;;;2614214;54;20524;-79
2023/09/25 14:02:12;;;;;;;11.67;11.17;;;;;;;;;;2614338;54;20390;-79
2023/09/25 14:07:42;;;;;;;12.10;11.40;;;;;;;;;;2615425;54;21360;-78
2023/09/25 14:13:11;;;;;;;12.40;11.70;;;;;;;;;;2614310;54;20394;-76
2023/09/25 14:18:41;;;;;;;12.23;11.50;;;;;;;;;;2614678;54;20423;-78
2023/09/25 14:24:11;;;;;;;12.30;11.67;;;;;;;;;;2615689;39;20773;-76
2023/09/25 14:29:41;;;;;;;12.17;11.57;;;;;;;;;;2612675;54;20395;-77
2023/09/25 14:35:11;;;;;;;11.80;11.20;;;;;;;;;;2611971;54;20387;-77
2023/09/25 14:40:40;;;;;;;11.50;11.00;;;;;;;;;;2611750;54;20473;-77
2023/09/25 14:43:25;;;;;;;12.03;11.43;;;;;;;;;;2611965;48;20543;-77
2023/09/25 14:45:52;;;;;;;11.63;11.13;;;;;;;;;;2612275;47;20436;-77
2023/09/25 14:51:22;;;;;;;13.00;12.07;;;;;;;;;;2612322;54;20394;-77
2023/09/25 14:56:51;;;;;;;12.03;11.53;;;;;;;;;;2613571;31;20845;-77
2023/09/25 15:02:21;;;;;;;12.40;11.70;;;;;;;;;;2613657;54;20383;-77
2023/09/25 15:07:51;;;;;;;12.70;12.10;;;;;;;;;;2613213;54;20397;-79
2023/09/25 15:13:22;;;;;;;12.30;11.80;;;;;;;;;;2612974;46;20428;-79
2023/09/25 15:18:52;;;;;;;12.30;11.80;;;;;;;;;;2615346;54;20435;-79
2023/09/25 15:24:22;;;;;;;12.10;11.60;;;;;;;;;;2613244;54;20440;-80
2023/09/25 15:29:52;;;;;;;12.77;12.17;;;;;;;;;;2615368;54;20400;-79
2023/09/25 15:35:22;;;;;;;12.20;11.60;;;;;;;;;;2614849;39;20766;-78
2023/09/25 15:40:51;;;;;;;11.50;11.00;;;;;;;;;;2613664;39;20807;-79
2023/09/25 15:46:21;;;;;;;12.20;11.60;;;;;;;;;;2614365;54;20503;-79
2023/09/25 15:51:51;;;;;;;12.10;11.50;;;;;;;;;;2614422;46;20435;-79
2023/09/25 15:57:20;;;;;;;12.67;12.07;;;;;;;;;;2615899;31;21032;-79
2023/09/25 16:02:50;;;;;;;10.57;10.10;;;;;;;;;;2613942;54;20392;-79
2023/09/25 16:08:20;;;;;;;11.13;10.63;;;;;;;;;;2613989;54;20379;-79
2023/09/25 16:13:50;;;;;;;12.60;11.90;;;;;;;;;;2613049;54;20383;-80
2023/09/25 16:19:19;;;;;;;13.20;12.60;;;;;;;;;;2613275;54;20399;-78
2023/09/25 16:30:56;;;;;;;13.17;12.37;;;;;;;;;;2612262;54;20416;-78
2023/09/25 16:36:26;;;;;;;12.10;11.50;;;;;;;;;;2613981;54;20390;-78
2023/09/25 16:41:56;;;;;;;12.13;11.53;;;;;;;;;;2614782;54;20992;-77
2023/09/25 16:47:25;;;;;;;12.80;12.20;;;;;;;;;;2613193;54;20388;-77
2023/09/25 16:52:55;;;;;;;13.40;12.70;;;;;;;;;;2613436;54;21067;-78
2023/09/25 16:58:25;;;;;;;13.03;12.30;;;;;;;;;;2614683;54;20414;-78
2023/09/25 17:03:54;;;;;;;13.80;13.10;;;;;;;;;;2614066;54;20395;-77
2023/09/25 17:09:24;;;;;;;11.70;11.20;;;;;;;;;;2614186;54;21060;-83
2023/09/25 17:14:54;;;;;;;12.03;11.07;;;;;;;;;;2614112;54;20929;-82
2023/09/25 17:20:23;;;;;;;13.07;12.00;;;;;;;;;;2615050;54;20426;-79
2023/09/25 17:29:25;;;;;;;11.13;10.40;;;;;;;;;;2613414;54;20394;-83
2023/09/25 17:34:56;;;;;;;11.97;11.27;;;;;;;;;;2615744;39;20828;-81
2023/09/25 17:40:25;;;;;;;10.10;9.53;;;;;;;;;;2614291;54;20491;-82
2023/09/25 17:45:55;;;;;;;11.43;10.83;;;;;;;;;;2614420;54;20399;-79
2023/09/25 17:51:24;;;;;;;10.23;9.63;;;;;;;;;;2615401;54;20458;-84
2023/09/25 17:56:55;;;;;;;11.87;11.07;;;;;;;;;;2615068;39;20893;-80
2023/09/25 18:02:25;;;;;;;12.10;11.23;;;;;;;;;;2615960;54;20391;-79
2023/09/25 18:07:55;;;;;;;11.47;10.57;;;;;;;;;;2615914;54;20402;-81
2023/09/25 18:13:26;;;;;;;11.53;10.83;;;;;;;;;;2615620;54;20422;-79
2023/09/25 18:18:55;;;;;;;11.00;10.30;;;;;;;;;;2613219;54;20443;-80
2023/09/25 18:24:25;;;;;;;10.57;9.77;;;;;;;;;;2614465;39;20874;-81
2023/09/25 18:29:55;;;;;;;11.30;9.93;;;;;;;;;;2612638;54;20383;-79
2023/09/25 18:35:24;;;;;;;9.57;8.77;;;;;;;;;;2614336;54;20387;-80
2023/09/25 18:40:54;;;;;;;9.30;8.70;;;;;;;;;;2614135;54;22046;-81
2023/09/25 18:46:28;;;;;;;11.10;10.17;;;;;;;;;;2617408;39;20596;-82
2023/09/25 18:51:57;;;;;;;10.87;9.93;;;;;;;;;;2614758;54;20378;-83
2023/09/25 18:57:27;;;;;;;10.63;9.90;;;;;;;;;;2613771;54;20452;-81
2023/09/25 19:02:57;;;;;;;10.17;9.03;;;;;;;;;;2613388;54;20399;-81
2023/09/25 19:08:27;;;;;;;11.07;10.00;;;;;;;;;;2613931;54;20922;-81
2023/09/25 19:13:56;;;;;;;9.50;8.80;;;;;;;;;;2615508;39;20781;-82
2023/09/25 19:19:26;;;;;;;11.77;10.60;;;;;;;;;;2612927;54;20439;-82
2023/09/25 19:24:56;;;;;;;10.63;9.83;;;;;;;;;;2613952;39;20834;-82
2023/09/25 19:30:26;;;;;;;11.30;10.10;;;;;;;;;;2613697;39;20771;-82
2023/09/25 19:35:56;;;;;;;13.97;11.97;;;;;;;;;;2614857;54;20503;-82
2023/09/25 19:41:25;;;;;;;14.80;11.87;;;;;;;;;;2615785;54;20828;-82
2023/09/25 19:46:55;;;;;;;11.17;10.20;;;;;;;;;;2614865;39;20769;-81
2023/09/25 19:52:26;;;;;;;10.00;9.00;;;;;;;;;;2614798;54;20386;-81
2023/09/25 19:57:56;;;;;;;15.60;10.27;;;;;;;;;;2614157;54;20399;-80
2023/09/25 20:03:26;;;;;;;9.17;8.33;;;;;;;;;;2616609;39;20795;-80
2023/09/25 20:08:56;;;;;;;10.90;8.70;;;;;;;;;;2614536;39;20859;-79
2023/09/25 20:14:26;;;;;;;11.33;8.97;;;;;;;;;;2614764;54;20391;-79
2023/09/25 20:19:55;;;;;;;9.90;8.80;;;;;;;;;;2615808;39;20834;-79
2023/09/25 20:22:40;;;;;;;8.37;7.77;;;;;;;;;;2613713;54;20546;-80
2023/09/25 20:31:13;;;;;;;10.33;8.43;;;;;;;;;;2614561;54;20384;-78
2023/09/25 20:36:43;;;;;;;10.67;8.40;;;;;;;;;;2614743;54;20418;-79
2023/09/25 20:42:13;;;;;;;10.17;9.37;;;;;;;;;;2613020;54;20382;-79
2023/09/25 20:47:42;;;;;;;9.53;8.67;;;;;;;;;;2614513;39;20858;-80
2023/09/25 20:53:12;;;;;;;8.43;7.67;;;;;;;;;;2615112;47;20842;-77
2023/09/25 20:58:42;;;;;;;9.50;8.70;;;;;;;;;;2614458;54;20406;-79
2023/09/25 21:04:11;;;;;;;8.37;7.43;;;;;;;;;;2616170;39;20798;-80
2023/09/25 21:09:41;;;;;;;8.73;7.93;;;;;;;;;;2615393;54;20422;-80
2023/09/25 21:15:11;;;;;;;8.40;7.70;;;;;;;;;;2614990;54;20398;-79
2023/09/25 21:20:40;;;;;;;8.33;7.63;;;;;;;;;;2615223;54;20383;-79
2023/09/25 21:23:25;;;;;;;11.10;9.13;;;;;;;;;;2614723;54;20423;-79
2023/09/25 21:31:59;;;;;;;10.73;8.37;;;;;;;;;;2616039;54;20544;-79
2023/09/25 21:37:28;;;;;;;10.37;9.50;;;;;;;;;;2615698;54;20373;-80
2023/09/25 21:42:58;;;;;;;9.73;8.83;;;;;;;;;;2614404;54;20416;-79
2023/09/25 21:48:28;;;;;;;8.60;7.90;;;;;;;;;;2614696;54;20382;-78
2023/09/25 21:53:59;;;;;;;9.13;8.40;;;;;;;;;;2613663;54;20398;-79
2023/09/25 21:59:29;;;;;;;9.50;8.60;;;;;;;;;;2613400;54;20431;-78
2023/09/25 22:04:59;;;;;;;10.30;8.07;;;;;;;;;;2614791;54;20383;-79
2023/09/25 22:10:29;;;;;;;7.93;7.23;;;;;;;;;;2614528;54;20402;-80
2023/09/25 22:16:02;;;;;;;9.27;8.30;;;;;;;;;;2613602;54;20491;-80
2023/09/25 22:21:32;;;;;;;9.30;8.50;;;;;;;;;;2614279;39;20896;-80
2023/09/25 22:30:43;;;;;;;10.63;8.93;;;;;;;;;;2614662;54;20438;-80
2023/09/25 22:36:13;;;;;;;9.63;8.53;;;;;;;;;;2615244;39;20809;-82
2023/09/25 22:41:43;;;;;;;10.17;9.27;;;;;;;;;;2615029;54;20386;-81
2023/09/25 22:47:13;;;;;;;8.53;7.73;;;;;;;;;;2615417;54;20355;-80
2023/09/25 22:52:43;;;;;;;10.23;8.47;;;;;;;;;;2614843;54;20387;-79
2023/09/25 22:58:13;;;;;;;9.37;8.47;;;;;;;;;;2615255;54;20419;-81
2023/09/25 23:03:42;;;;;;;9.43;8.30;;;;;;;;;;2615714;54;20408;-80
2023/09/25 23:09:14;;;;;;;9.10;7.97;;;;;;;;;;2614690;54;20495;-81
2023/09/25 23:14:44;;;;;;;11.80;10.10;;;;;;;;;;2612949;54;20394;-81
2023/09/25 23:20:20;;;;;;;13.03;8.70;;;;;;;;;;2614428;46;20428;-80
2023/09/25 23:25:50;;;;;;;10.57;8.90;;;;;;;;;;2613149;54;20342;-79
2023/09/25 23:31:20;;;;;;;10.50;9.20;;;;;;;;;;2612226;54;20442;-79
2023/09/25 23:36:49;;;;;;;9.97;9.07;;;;;;;;;;2611318;54;20379;-80
2023/09/25 23:42:18;;;;;;;10.40;9.30;;;;;;;;;;2613128;54;20394;-81
2023/09/25 23:47:48;;;;;;;10.20;9.13;;;;;;;;;;2612987;54;20415;-80
2023/09/25 23:53:17;;;;;;;11.20;10.10;;;;;;;;;;2614627;39;20897;-81
2023/09/25 23:58:47;;;;;;;12.93;9.83;;;;;;;;;;2614361;54;20455;-80
